sensor_id;sensor_type;location;lat;lon;timestamp;pressure;altitude;pressure_sealevel;temperature;humidity
10060;BME280;5069;49.306;8.636;2024-01-30T00:01:52;101945.94;;;4.60;100.00
10060;BME280;5069;49.306;8.636;2024-01-30T00:04:54;101937.25;;;4.61;100.00
10060;BME280;5069;49.306;8.636;2024-01-30T00:07:55;101944.31;;;4.68;100.00
10060;BME280;5069;49.306;8.636;2024-01-30T00:10:57;101952.09;;;4.63;100.00
10060;BME280;5069;49.306;8.636;2024-01-30T00:13:58;101946.03;;;4.66;100.00
10060;BME280;5069;49.306;8.636;2024-01-30T00:17:00;101944.16;;;4.55;100.00
10060;BME280;5069;49.306;8.636;2024-01-30T00:20:01;101945.09;;;4.61;100.00
10060;BME280;5069;49.306;8.636;2024-01-30T00:23:06;101945.00;;;4.54;100.00
10060;BME280;5069;49.306;8.636;2024-01-30T00:26:08;101933.75;;;4.62;100.00
10060;BME280;5069;49.306;8.636;2024-01-30T00:29:10;101935.56;;;4.64;100.00
10060;BME280;5069;49.306;8.636;2024-01-30T00:32:11;101933.94;;;4.74;100.00
10060;BME280;5069;49.306;8.636;2024-01-30T00:35:13;101937.19;;;4.57;100.00
10060;BME280;5069;49.306;8.636;2024-01-30T00:38:14;101944.09;;;4.52;100.00
10060;BME280;5069;49.306;8.636;2024-01-30T00:41:17;101948.50;;;4.56;100.00
10060;BME280;5069;49.306;8.636;2024-01-30T00:44:19;101940.75;;;4.63;100.00
10060;BME280;5069;49.306;8.636;2024-01-30T00:47:21;101940.66;;;4.56;100.00
10060;BME280;5069;49.306;8.636;2024-01-30T00:50:22;101949.28;;;4.49;100.00
10060;BME280;5069;49.306;8.636;2024-01-30T00:53:24;101947.59;;;4.54;100.00
10060;BME280;5069;49.306;8.636;2024-01-30T00:56:26;101955.25;;;4.42;100.00
10060;BME280;5069;49.306;8.636;2024-01-30T00:59:27;101958.53;;;4.31;100.00
10060;BME280;5069;49.306;8.636;2024-01-30T01:02:28;101956.88;;;4.36;100.00
10060;BME280;5069;49.306;8.636;2024-01-30T01:05:30;101948.13;;;4.34;100.00
10060;BME280;5069;49.306;8.636;2024-01-30T01:08:31;101949.84;;;4.33;100.00
10060;BME280;5069;49.306;8.636;2024-01-30T01:11:33;101961.00;;;4.23;100.00
10060;BME280;5069;49.306;8.636;2024-01-30T01:14:34;101957.53;;;4.24;100.00
10060;BME280;5069;49.306;8.636;2024-01-30T01:17:38;101959.19;;;4.19;100.00
10060;BME280;5069;49.306;8.636;2024-01-30T01:20:39;101962.53;;;4.12;100.00
10060;BME280;5069;49.306;8.636;2024-01-30T01:23:41;101966.00;;;4.11;100.00
10060;BME280;5069;49.306;8.636;2024-01-30T01:26:42;101962.66;;;4.18;100.00
10060;BME280;5069;49.306;8.636;2024-01-30T01:29:44;101960.00;;;4.15;100.00
10060;BME280;5069;49.306;8.636;2024-01-30T01:32:48;101961.56;;;4.04;100.00
10060;BME280;5069;49.306;8.636;2024-01-30T01:35:56;101967.53;;;4.00;100.00
10060;BME280;5069;49.306;8.636;2024-01-30T01:38:57;101957.28;;;4.09;100.00
10060;BME280;5069;49.306;8.636;2024-01-30T01:41:59;101962.47;;;4.07;100.00
10060;BME280;5069;49.306;8.636;2024-01-30T01:45:00;101957.19;;;4.03;100.00
10060;BME280;5069;49.306;8.636;2024-01-30T01:48:02;101955.25;;;3.93;100.00
10060;BME280;5069;49.306;8.636;2024-01-30T01:51:04;101956.03;;;3.87;100.00
10060;BME280;5069;49.306;8.636;2024-01-30T01:54:06;101953.50;;;3.92;100.00
10060;BME280;5069;49.306;8.636;2024-01-30T01:57:08;101951.84;;;3.97;100.00
10060;BME280;5069;49.306;8.636;2024-01-30T02:00:10;101949.34;;;4.03;100.00
10060;BME280;5069;49.306;8.636;2024-01-30T02:03:13;101946.66;;;4.00;100.00
10060;BME280;5069;49.306;8.636;2024-01-30T02:06:15;101936.97;;;3.91;100.00
10060;BME280;5069;49.306;8.636;2024-01-30T02:09:17;101944.81;;;3.93;100.00
10060;BME280;5069;49.306;8.636;2024-01-30T02:12:19;101942.81;;;3.80;100.00
10060;BME280;5069;49.306;8.636;2024-01-30T02:15:20;101946.28;;;3.79;100.00
10060;BME280;5069;49.306;8.636;2024-01-30T02:18:22;101939.53;;;3.90;100.00
10060;BME280;5069;49.306;8.636;2024-01-30T02:21:24;101949.94;;;3.87;100.00
10060;BME280;5069;49.306;8.636;2024-01-30T02:24:26;101941.19;;;3.85;100.00
10060;BME280;5069;49.306;8.636;2024-01-30T02:27:27;101951.66;;;3.88;100.00
10060;BME280;5069;49.306;8.636;2024-01-30T02:30:28;101943.75;;;3.83;100.00
10060;BME280;5069;49.306;8.636;2024-01-30T02:33:30;101953.41;;;3.89;100.00
10060;BME280;5069;49.306;8.636;2024-01-30T02:36:31;101946.66;;;4.00;100.00
10060;BME280;5069;49.306;8.636;2024-01-30T02:39:33;101938.78;;;3.97;100.00
10060;BME280;5069;49.306;8.636;2024-01-30T02:42:34;101945.91;;;4.04;100.00
10060;BME280;5069;49.306;8.636;2024-01-30T02:45:36;101944.81;;;3.93;100.00
10060;BME280;5069;49.306;8.636;2024-01-30T02:48:37;101949.19;;;3.95;100.00
10060;BME280;5069;49.306;8.636;2024-01-30T02:51:40;101946.28;;;3.79;100.00
10060;BME280;5069;49.306;8.636;2024-01-30T02:54:42;101952.25;;;3.73;100.00
10060;BME280;5069;49.306;8.636;2024-01-30T02:57:43;101951.53;;;3.82;100.00
10060;BME280;5069;49.306;8.636;2024-01-30T03:00:45;101945.53;;;3.84;100.00
10060;BME280;5069;49.306;8.636;2024-01-30T03:03:47;101942.00;;;3.81;100.00
10060;BME280;5069;49.306;8.636;2024-01-30T03:06:48;101940.25;;;3.81;100.00
10060;BME280;5069;49.306;8.636;2024-01-30T03:09:50;101936.66;;;3.74;100.00
10060;BME280;5069;49.306;8.636;2024-01-30T03:12:51;101941.03;;;3.76;100.00
10060;BME280;5069;49.306;8.636;2024-01-30T03:15:53;101940.94;;;3.72;100.00
10060;BME280;5069;49.306;8.636;2024-01-30T03:18:54;101943.63;;;3.77;100.00
10060;BME280;5069;49.306;8.636;2024-01-30T03:21:56;101953.81;;;3.63;100.00
10060;BME280;5069;49.306;8.636;2024-01-30T03:24:57;101949.38;;;3.59;100.00
10060;BME280;5069;49.306;8.636;2024-01-30T03:27:59;101953.50;;;3.47;100.00
10060;BME280;5069;49.306;8.636;2024-01-30T03:31:00;101944.06;;;3.55;100.00
10060;BME280;5069;49.306;8.636;2024-01-30T03:34:02;101953.50;;;3.48;100.00
10060;BME280;5069;49.306;8.636;2024-01-30T03:37:04;101949.16;;;3.47;100.00
10060;BME280;5069;49.306;8.636;2024-01-30T03:40:06;101956.19;;;3.51;100.00
10060;BME280;5069;49.306;8.636;2024-01-30T03:43:07;101944.00;;;3.50;100.00
10060;BME280;5069;49.306;8.636;2024-01-30T03:46:11;101946.56;;;3.49;100.00
10060;BME280;5069;49.306;8.636;2024-01-30T03:49:13;101941.47;;;3.55;100.00
10060;BME280;5069;49.306;8.636;2024-01-30T03:52:15;101956.31;;;3.57;100.00
10060;BME280;5069;49.306;8.636;2024-01-30T03:55:16;101947.66;;;3.58;100.00
10060;BME280;5069;49.306;8.636;2024-01-30T03:58:18;101950.28;;;3.61;100.00
10060;BME280;5069;49.306;8.636;2024-01-30T04:01:20;101949.44;;;3.62;100.00
10060;BME280;5069;49.306;8.636;2024-01-30T04:04:21;101954.59;;;3.59;100.00
10060;BME280;5069;49.306;8.636;2024-01-30T04:07:23;101949.25;;;3.53;100.00
10060;BME280;5069;49.306;8.636;2024-01-30T04:10:25;101945.88;;;3.57;100.00
10060;BME280;5069;49.306;8.636;2024-01-30T04:13:26;101945.63;;;3.45;100.00
10060;BME280;5069;49.306;8.636;2024-01-30T04:16:28;101944.53;;;3.34;100.00
10060;BME280;5069;49.306;8.636;2024-01-30T04:19:29;101943.63;;;3.32;100.00
10060;BME280;5069;49.306;8.636;2024-01-30T04:22:31;101949.72;;;3.32;100.00
10060;BME280;5069;49.306;8.636;2024-01-30T04:25:33;101946.44;;;3.41;100.00
10060;BME280;5069;49.306;8.636;2024-01-30T04:28:34;101947.31;;;3.43;100.00
10060;BME280;5069;49.306;8.636;2024-01-30T04:31:36;101950.59;;;3.33;100.00
10060;BME280;5069;49.306;8.636;2024-01-30T04:34:38;101953.25;;;3.36;100.00
10060;BME280;5069;49.306;8.636;2024-01-30T04:37:40;101953.47;;;3.45;100.00
10060;BME280;5069;49.306;8.636;2024-01-30T04:40:42;101945.50;;;3.39;100.00
10060;BME280;5069;49.306;8.636;2024-01-30T04:43:43;101957.81;;;3.46;100.00
10060;BME280;5069;49.306;8.636;2024-01-30T04:46:45;101955.94;;;3.39;100.00
10060;BME280;5069;49.306;8.636;2024-01-30T04:49:46;101952.28;;;3.31;100.00
10060;BME280;5069;49.306;8.636;2024-01-30T04:52:48;101949.75;;;3.34;100.00
10060;BME280;5069;49.306;8.636;2024-01-30T04:55:49;101948.78;;;3.29;100.00
10060;BME280;5069;49.306;8.636;2024-01-30T04:58:51;101953.91;;;3.26;100.00
10060;BME280;5069;49.306;8.636;2024-01-30T05:01:52;101952.28;;;3.31;100.00
10060;BME280;5069;49.306;8.636;2024-01-30T05:04:54;101956.72;;;3.35;100.00
10060;BME280;5069;49.306;8.636;2024-01-30T05:07:56;101951.50;;;3.35;100.00
10060;BME280;5069;49.306;8.636;2024-01-30T05:11:00;101964.56;;;3.35;100.00
10060;BME280;5069;49.306;8.636;2024-01-30T05:14:01;101962.78;;;3.34;100.00
10060;BME280;5069;49.306;8.636;2024-01-30T05:17:03;101970.72;;;3.40;100.00
10060;BME280;5069;49.306;8.636;2024-01-30T05:20:06;101966.19;;;3.30;100.00
10060;BME280;5069;49.306;8.636;2024-01-30T05:23:07;101971.69;;;3.45;100.00
10060;BME280;5069;49.306;8.636;2024-01-30T05:26:09;101971.44;;;3.33;100.00
10060;BME280;5069;49.306;8.636;2024-01-30T05:29:10;101971.31;;;3.27;100.00
10060;BME280;5069;49.306;8.636;2024-01-30T05:32:12;101969.63;;;3.29;100.00
10060;BME280;5069;49.306;8.636;2024-01-30T05:35:13;101967.91;;;3.31;100.00
10060;BME280;5069;49.306;8.636;2024-01-30T05:38:16;101969.81;;;3.38;100.00
10060;BME280;5069;49.306;8.636;2024-01-30T05:41:17;101978.41;;;3.34;100.00
10060;BME280;5069;49.306;8.636;2024-01-30T05:44:19;101973.13;;;3.31;100.00
10060;BME280;5069;49.306;8.636;2024-01-30T05:47:20;101972.19;;;3.27;100.00
10060;BME280;5069;49.306;8.636;2024-01-30T05:50:22;101979.09;;;3.25;100.00
10060;BME280;5069;49.306;8.636;2024-01-30T05:53:24;101984.38;;;3.28;100.00
10060;BME280;5069;49.306;8.636;2024-01-30T05:56:26;101982.56;;;3.24;100.00
10060;BME280;5069;49.306;8.636;2024-01-30T05:59:27;101981.81;;;3.30;100.00
10060;BME280;5069;49.306;8.636;2024-01-30T06:02:29;101985.28;;;3.30;100.00
10060;BME280;5069;49.306;8.636;2024-01-30T06:05:30;101990.50;;;3.30;100.00
10060;BME280;5069;49.306;8.636;2024-01-30T06:08:32;101988.59;;;3.22;100.00
10060;BME280;5069;49.306;8.636;2024-01-30T06:11:34;101984.03;;;3.12;100.00
10060;BME280;5069;49.306;8.636;2024-01-30T06:14:35;101983.94;;;3.09;100.00
10060;BME280;5069;49.306;8.636;2024-01-30T06:17:37;101994.25;;;3.04;100.00
10060;BME280;5069;49.306;8.636;2024-01-30T06:20:38;101987.09;;;2.94;100.00
10060;BME280;5069;49.306;8.636;2024-01-30T06:23:40;101983.19;;;3.13;100.00
10060;BME280;5069;49.306;8.636;2024-01-30T06:26:41;101980.53;;;3.11;100.00
10060;BME280;5069;49.306;8.636;2024-01-30T06:29:43;101985.75;;;3.11;100.00
10060;BME280;5069;49.306;8.636;2024-01-30T06:32:45;101982.97;;;3.04;100.00
10060;BME280;5069;49.306;8.636;2024-01-30T06:35:46;101982.97;;;3.04;100.00
10060;BME280;5069;49.306;8.636;2024-01-30T06:38:48;101989.88;;;3.02;100.00
10060;BME280;5069;49.306;8.636;2024-01-30T06:41:49;101991.59;;;3.01;100.00
10060;BME280;5069;49.306;8.636;2024-01-30T06:44:51;101989.75;;;2.96;100.00
10060;BME280;5069;49.306;8.636;2024-01-30T06:47:52;101993.94;;;2.89;100.00
10060;BME280;5069;49.306;8.636;2024-01-30T06:50:54;101993.97;;;2.92;100.00
10060;BME280;5069;49.306;8.636;2024-01-30T06:53:55;101987.97;;;2.95;100.00
10060;BME280;5069;49.306;8.636;2024-01-30T06:56:56;101997.41;;;2.89;100.00
10060;BME280;5069;49.306;8.636;2024-01-30T06:59:58;101996.53;;;2.89;100.00
10060;BME280;5069;49.306;8.636;2024-01-30T07:02:59;102007.84;;;2.89;100.00
10060;BME280;5069;49.306;8.636;2024-01-30T07:06:01;101999.88;;;2.83;100.00
10060;BME280;5069;49.306;8.636;2024-01-30T07:09:03;102002.78;;;2.96;100.00
10060;BME280;5069;49.306;8.636;2024-01-30T07:12:04;102001.28;;;3.07;100.00
10060;BME280;5069;49.306;8.636;2024-01-30T07:15:07;102003.94;;;3.10;100.00
10060;BME280;5069;49.306;8.636;2024-01-30T07:18:09;101998.00;;;3.15;100.00
10060;BME280;5069;49.306;8.636;2024-01-30T07:21:11;101995.56;;;3.23;100.00
10060;BME280;5069;49.306;8.636;2024-01-30T07:24:13;101993.03;;;3.27;100.00
10060;BME280;5069;49.306;8.636;2024-01-30T07:27:15;102000.97;;;3.32;100.00
10060;BME280;5069;49.306;8.636;2024-01-30T07:30:20;102000.69;;;3.20;100.00
10060;BME280;5069;49.306;8.636;2024-01-30T07:33:21;101994.78;;;3.27;100.00
10060;BME280;5069;49.306;8.636;2024-01-30T07:36:23;101998.94;;;3.19;100.00
10060;BME280;5069;49.306;8.636;2024-01-30T07:39:24;102005.19;;;3.27;100.00
10060;BME280;5069;49.306;8.636;2024-01-30T07:42:25;102003.44;;;3.26;100.00
10060;BME280;5069;49.306;8.636;2024-01-30T07:45:27;101999.16;;;3.28;100.00
10060;BME280;5069;49.306;8.636;2024-01-30T07:48:33;101998.56;;;3.41;100.00
10060;BME280;5069;49.306;8.636;2024-01-30T07:51:35;101997.69;;;3.42;100.00
10060;BME280;5069;49.306;8.636;2024-01-30T07:54:36;102008.06;;;3.39;100.00
10060;BME280;5069;49.306;8.636;2024-01-30T07:57:40;101996.13;;;3.50;100.00
10060;BME280;5069;49.306;8.636;2024-01-30T08:00:41;102000.69;;;3.60;100.00
10060;BME280;5069;49.306;8.636;2024-01-30T08:03:43;101996.75;;;3.81;100.00
10060;BME280;5069;49.306;8.636;2024-01-30T08:06:44;101995.84;;;3.79;100.00
10060;BME280;5069;49.306;8.636;2024-01-30T08:09:46;102003.63;;;3.77;100.00
10060;BME280;5069;49.306;8.636;2024-01-30T08:12:48;101999.22;;;3.73;100.00
10060;BME280;5069;49.306;8.636;2024-01-30T08:15:49;102005.59;;;3.87;100.00
10060;BME280;5069;49.306;8.636;2024-01-30T08:18:51;102008.38;;;3.96;100.00
10060;BME280;5069;49.306;8.636;2024-01-30T08:21:54;102012.81;;;4.02;100.00
10060;BME280;5069;49.306;8.636;2024-01-30T08:24:57;102016.53;;;4.16;100.00
10060;BME280;5069;49.306;8.636;2024-01-30T08:27:58;102027.06;;;4.19;100.00
10060;BME280;5069;49.306;8.636;2024-01-30T08:31:00;102020.22;;;4.26;100.00
10060;BME280;5069;49.306;8.636;2024-01-30T08:34:01;102030.19;;;4.48;100.00
10060;BME280;5069;49.306;8.636;2024-01-30T08:37:03;102029.34;;;4.50;100.00
10060;BME280;5069;49.306;8.636;2024-01-30T08:40:05;102021.69;;;4.60;100.00
10060;BME280;5069;49.306;8.636;2024-01-30T08:43:07;102025.13;;;4.57;100.00
10060;BME280;5069;49.306;8.636;2024-01-30T08:46:11;102022.47;;;4.54;100.00
10060;BME280;5069;49.306;8.636;2024-01-30T08:49:13;102020.88;;;4.64;100.00
10060;BME280;5069;49.306;8.636;2024-01-30T08:52:14;102028.97;;;4.80;100.00
10060;BME280;5069;49.306;8.636;2024-01-30T08:55:16;102029.09;;;4.86;100.00
10060;BME280;5069;49.306;8.636;2024-01-30T08:58:18;102019.53;;;4.90;100.00
10060;BME280;5069;49.306;8.636;2024-01-30T09:01:20;102024.88;;;4.96;100.00
10060;BME280;5069;49.306;8.636;2024-01-30T09:04:22;102022.28;;;4.97;100.00
10060;BME280;5069;49.306;8.636;2024-01-30T09:07:26;102017.28;;;5.11;100.00
10060;BME280;5069;49.306;8.636;2024-01-30T09:10:28;102029.50;;;5.12;100.00
10060;BME280;5069;49.306;8.636;2024-01-30T09:13:30;102016.56;;;5.24;100.00
10060;BME280;5069;49.306;8.636;2024-01-30T09:16:31;102013.25;;;5.34;100.00
10060;BME280;5069;49.306;8.636;2024-01-30T09:19:33;102015.81;;;5.31;100.00
10060;BME280;5069;49.306;8.636;2024-01-30T09:22:35;102012.34;;;5.32;100.00
10060;BME280;5069;49.306;8.636;2024-01-30T09:25:37;102017.78;;;5.46;100.00
10060;BME280;5069;49.306;8.636;2024-01-30T09:28:38;102025.59;;;5.48;100.00
10060;BME280;5069;49.306;8.636;2024-01-30T09:31:43;102025.91;;;5.69;100.00
10060;BME280;5069;49.306;8.636;2024-01-30T09:34:45;102025.91;;;5.69;100.00
10060;BME280;5069;49.306;8.636;2024-01-30T09:37:46;102024.16;;;5.71;100.00
10060;BME280;5069;49.306;8.636;2024-01-30T09:40:54;102028.56;;;5.73;100.00
10060;BME280;5069;49.306;8.636;2024-01-30T09:43:57;102033.78;;;5.72;100.00
10060;BME280;5069;49.306;8.636;2024-01-30T09:46:59;102038.91;;;5.63;100.00
10060;BME280;5069;49.306;8.636;2024-01-30T09:50:06;102032.75;;;5.61;100.00
10060;BME280;5069;49.306;8.636;2024-01-30T09:53:08;102036.50;;;5.81;100.00
10060;BME280;5069;49.306;8.636;2024-01-30T09:56:10;102036.81;;;6.05;100.00
10060;BME280;5069;49.306;8.636;2024-01-30T09:59:13;102037.75;;;6.10;100.00
10060;BME280;5069;49.306;8.636;2024-01-30T10:02:15;102037.91;;;6.24;100.00
10060;BME280;5069;49.306;8.636;2024-01-30T10:05:19;102044.97;;;6.34;100.00
10060;BME280;5069;49.306;8.636;2024-01-30T10:08:21;102042.44;;;6.42;100.00
10060;BME280;5069;49.306;8.636;2024-01-30T10:11:23;102042.50;;;6.48;100.00
10060;BME280;5069;49.306;8.636;2024-01-30T10:14:26;102039.09;;;6.55;100.00
10060;BME280;5069;49.306;8.636;2024-01-30T10:17:29;102027.78;;;6.63;100.00
10060;BME280;5069;49.306;8.636;2024-01-30T10:20:34;102030.44;;;6.68;100.00
10060;BME280;5069;49.306;8.636;2024-01-30T10:23:36;102034.94;;;6.81;100.00
10060;BME280;5069;49.306;8.636;2024-01-30T10:26:38;102036.69;;;6.85;100.00
10060;BME280;5069;49.306;8.636;2024-01-30T10:29:39;102030.59;;;6.89;100.00
10060;BME280;5069;49.306;8.636;2024-01-30T10:32:41;102027.19;;;7.01;100.00
10060;BME280;5069;49.306;8.636;2024-01-30T10:35:43;102039.47;;;7.03;100.00
10060;BME280;5069;49.306;8.636;2024-01-30T10:38:45;102036.00;;;7.07;100.00
10060;BME280;5069;49.306;8.636;2024-01-30T10:41:48;102026.44;;;7.16;100.00
10060;BME280;5069;49.306;8.636;2024-01-30T10:48:15;102023.78;;;7.13;100.00
10060;BME280;5069;49.306;8.636;2024-01-30T10:51:24;102020.38;;;7.24;100.00
10060;BME280;5069;49.306;8.636;2024-01-30T10:54:27;102022.25;;;7.45;100.00
10060;BME280;5069;49.306;8.636;2024-01-30T10:57:29;102024.06;;;7.61;100.00
10060;BME280;5069;49.306;8.636;2024-01-30T11:00:31;102018.88;;;7.73;100.00
10060;BME280;5069;49.306;8.636;2024-01-30T11:03:35;102011.06;;;7.93;100.00
10060;BME280;5069;49.306;8.636;2024-01-30T11:06:41;102014.56;;;8.00;100.00
10060;BME280;5069;49.306;8.636;2024-01-30T11:09:54;102016.28;;;7.93;100.00
10060;BME280;5069;49.306;8.636;2024-01-30T11:13:10;102002.34;;;8.08;100.00
10060;BME280;5069;49.306;8.636;2024-01-30T11:16:11;102012.00;;;8.18;100.00
10060;BME280;5069;49.306;8.636;2024-01-30T11:19:13;102012.00;;;8.21;100.00
10060;BME280;5069;49.306;8.636;2024-01-30T11:22:15;102011.13;;;8.28;100.00
10060;BME280;5069;49.306;8.636;2024-01-30T11:25:18;102012.94;;;8.46;100.00
10060;BME280;5069;49.306;8.636;2024-01-30T11:28:21;102012.09;;;8.71;100.00
10060;BME280;5069;49.306;8.636;2024-01-30T11:31:23;102005.06;;;8.67;100.00
10060;BME280;5069;49.306;8.636;2024-01-30T11:34:26;102006.81;;;8.79;100.00
10060;BME280;5069;49.306;8.636;2024-01-30T11:37:28;101991.91;;;8.93;100.00
10060;BME280;5069;49.306;8.636;2024-01-30T11:40:31;101996.22;;;9.18;100.00
10060;BME280;5069;49.306;8.636;2024-01-30T11:43:34;101989.19;;;9.31;100.00
10060;BME280;5069;49.306;8.636;2024-01-30T11:46:36;101988.31;;;9.26;100.00
10060;BME280;5069;49.306;8.636;2024-01-30T11:49:38;101987.41;;;9.30;100.00
10060;BME280;5069;49.306;8.636;2024-01-30T11:52:40;101988.28;;;9.38;100.00
10060;BME280;5069;49.306;8.636;2024-01-30T11:55:49;101970.59;;;9.70;100.00
10060;BME280;5069;49.306;8.636;2024-01-30T12:03:32;101976.63;;;9.95;100.00
10060;BME280;5069;49.306;8.636;2024-01-30T12:06:34;101969.66;;;9.83;100.00
10060;BME280;5069;49.306;8.636;2024-01-30T12:09:36;101960.72;;;10.06;100.00
10060;BME280;5069;49.306;8.636;2024-01-30T12:12:38;101944.78;;;10.25;100.00
10060;BME280;5069;49.306;8.636;2024-01-30T12:15:39;101942.25;;;10.19;100.00
10060;BME280;5069;49.306;8.636;2024-01-30T12:18:41;101946.63;;;10.13;100.00
10060;BME280;5069;49.306;8.636;2024-01-30T12:21:43;101942.28;;;10.04;100.00
10060;BME280;5069;49.306;8.636;2024-01-30T12:24:45;101932.59;;;10.09;100.00
10060;BME280;5069;49.306;8.636;2024-01-30T12:27:48;101928.19;;;10.19;100.00
10060;BME280;5069;49.306;8.636;2024-01-30T12:30:56;101929.81;;;10.32;100.00
10060;BME280;5069;49.306;8.636;2024-01-30T12:34:00;101920.19;;;10.26;100.00
10060;BME280;5069;49.306;8.636;2024-01-30T12:37:01;101924.53;;;10.37;100.00
10060;BME280;5069;49.306;8.636;2024-01-30T12:40:04;101919.16;;;10.46;100.00
10060;BME280;5069;49.306;8.636;2024-01-30T12:43:05;101921.75;;;10.49;100.00
10060;BME280;5069;49.306;8.636;2024-01-30T12:46:07;101915.50;;;10.62;100.00
10060;BME280;5069;49.306;8.636;2024-01-30T12:49:09;101909.09;;;10.84;100.00
10060;BME280;5069;49.306;8.636;2024-01-30T12:52:11;101899.22;;;11.03;100.00
10060;BME280;5069;49.306;8.636;2024-01-30T12:55:13;101915.00;;;11.07;100.00
10060;BME280;5069;49.306;8.636;2024-01-30T12:58:16;101907.97;;;11.06;100.00
10060;BME280;5069;49.306;8.636;2024-01-30T13:01:17;101915.75;;;11.17;100.00
10060;BME280;5069;49.306;8.636;2024-01-30T13:04:19;101919.94;;;11.35;100.00
10060;BME280;5069;49.306;8.636;2024-01-30T13:07:21;101915.66;;;11.28;100.00
10060;BME280;5069;49.306;8.636;2024-01-30T13:10:23;101917.38;;;11.29;100.00
10060;BME280;5069;49.306;8.636;2024-01-30T13:13:24;101909.59;;;11.16;100.00
10060;BME280;5069;49.306;8.636;2024-01-30T13:16:26;101914.81;;;11.24;100.00
10060;BME280;5069;49.306;8.636;2024-01-30T13:19:27;101903.09;;;11.45;100.00
10060;BME280;5069;49.306;8.636;2024-01-30T13:22:29;101910.91;;;11.55;100.00
10060;BME280;5069;49.306;8.636;2024-01-30T13:25:31;101916.25;;;11.49;100.00
10060;BME280;5069;49.306;8.636;2024-01-30T13:28:33;101916.34;;;11.40;100.00
10060;BME280;5069;49.306;8.636;2024-01-30T13:31:35;101913.66;;;11.45;100.00
10060;BME280;5069;49.306;8.636;2024-01-30T13:34:36;101910.09;;;11.49;100.00
10060;BME280;5069;49.306;8.636;2024-01-30T13:37:38;101906.44;;;11.59;100.00
10060;BME280;5069;49.306;8.636;2024-01-30T13:40:40;101919.69;;;11.56;100.00
10060;BME280;5069;49.306;8.636;2024-01-30T13:43:43;101920.69;;;11.46;100.00
10060;BME280;5069;49.306;8.636;2024-01-30T13:46:45;101924.28;;;11.40;100.00
10060;BME280;5069;49.306;8.636;2024-01-30T13:49:47;101920.00;;;11.30;100.00
10060;BME280;5069;49.306;8.636;2024-01-30T13:52:49;101924.41;;;11.33;100.00
10060;BME280;5069;49.306;8.636;2024-01-30T13:55:50;101917.38;;;11.29;100.00
10060;BME280;5069;49.306;8.636;2024-01-30T13:58:52;101919.13;;;11.30;100.00
10060;BME280;5069;49.306;8.636;2024-01-30T14:01:54;101917.38;;;11.30;100.00
10060;BME280;5069;49.306;8.636;2024-01-30T14:04:56;101913.75;;;11.39;100.00
10060;BME280;5069;49.306;8.636;2024-01-30T14:07:58;101905.78;;;11.40;100.00
10060;BME280;5069;49.306;8.636;2024-01-30T14:11:01;101912.84;;;11.40;100.00
10060;BME280;5069;49.306;8.636;2024-01-30T14:14:02;101906.81;;;11.30;100.00
10060;BME280;5069;49.306;8.636;2024-01-30T14:17:04;101909.44;;;11.32;100.00
10060;BME280;5069;49.306;8.636;2024-01-30T14:20:08;101901.22;;;11.53;100.00
10060;BME280;5069;49.306;8.636;2024-01-30T14:23:10;101904.97;;;11.37;100.00
10060;BME280;5069;49.306;8.636;2024-01-30T14:26:12;101911.22;;;11.30;100.00
10060;BME280;5069;49.306;8.636;2024-01-30T14:29:13;101919.13;;;11.30;100.00
10060;BME280;5069;49.306;8.636;2024-01-30T14:32:15;101919.22;;;11.24;100.00
10060;BME280;5069;49.306;8.636;2024-01-30T14:35:17;101916.50;;;11.28;100.00
10060;BME280;5069;49.306;8.636;2024-01-30T14:38:18;101921.03;;;11.18;100.00
10060;BME280;5069;49.306;8.636;2024-01-30T14:41:20;101914.84;;;11.21;100.00
10060;BME280;5069;49.306;8.636;2024-01-30T14:44:22;101919.34;;;11.11;100.00
10060;BME280;5069;49.306;8.636;2024-01-30T14:47:24;101914.13;;;11.08;100.00
10060;BME280;5069;49.306;8.636;2024-01-30T14:50:26;101913.31;;;11.05;100.00
10060;BME280;5069;49.306;8.636;2024-01-30T14:53:30;101910.66;;;11.03;100.00
10060;BME280;5069;49.306;8.636;2024-01-30T14:56:32;101912.38;;;11.07;100.00
10060;BME280;5069;49.306;8.636;2024-01-30T14:59:34;101915.94;;;11.03;100.00
10060;BME280;5069;49.306;8.636;2024-01-30T15:02:36;101912.50;;;10.97;100.00
10060;BME280;5069;49.306;8.636;2024-01-30T15:05:37;101912.50;;;10.98;100.00
10060;BME280;5069;49.306;8.636;2024-01-30T15:08:39;101910.81;;;10.91;100.00
10060;BME280;5069;49.306;8.636;2024-01-30T15:11:49;101910.00;;;10.83;100.00
10060;BME280;5069;49.306;8.636;2024-01-30T15:14:51;101919.72;;;10.76;100.00
10060;BME280;5069;49.306;8.636;2024-01-30T15:17:53;101926.75;;;10.79;100.00
10060;BME280;5069;49.306;8.636;2024-01-30T15:20:55;101924.13;;;10.77;100.00
10060;BME280;5069;49.306;8.636;2024-01-30T15:23:57;101932.03;;;10.79;100.00
10060;BME280;5069;49.306;8.636;2024-01-30T15:27:01;101935.59;;;10.75;100.00
10060;BME280;5069;49.306;8.636;2024-01-30T15:30:04;101942.63;;;10.73;100.00
10060;BME280;5069;49.306;8.636;2024-01-30T15:33:05;101943.56;;;10.69;100.00
10060;BME280;5069;49.306;8.636;2024-01-30T15:36:07;101960.31;;;10.62;100.00
10060;BME280;5069;49.306;8.636;2024-01-30T15:39:10;101943.66;;;10.58;100.00
10060;BME280;5069;49.306;8.636;2024-01-30T15:42:12;101954.22;;;10.54;100.00
10060;BME280;5069;49.306;8.636;2024-01-30T15:45:14;101953.38;;;10.52;100.00
10060;BME280;5069;49.306;8.636;2024-01-30T15:48:16;101953.41;;;10.49;100.00
10060;BME280;5069;49.306;8.636;2024-01-30T15:51:17;101956.06;;;10.46;100.00
10060;BME280;5069;49.306;8.636;2024-01-30T15:54:19;101963.16;;;10.42;100.00
10060;BME280;5069;49.306;8.636;2024-01-30T15:57:21;101963.16;;;10.41;100.00
10060;BME280;5069;49.306;8.636;2024-01-30T16:00:23;101965.78;;;10.42;100.00
10060;BME280;5069;49.306;8.636;2024-01-30T16:03:25;101965.78;;;10.39;100.00
10060;BME280;5069;49.306;8.636;2024-01-30T16:06:29;101964.06;;;10.33;100.00
10060;BME280;5069;49.306;8.636;2024-01-30T16:09:31;101972.03;;;10.29;100.00